Time;durP1;ratioP1;P1;durP2;ratioP2;P2;SDS_P1;SDS_P2;PMS_P1;PMS_P2;Temp;Humidity;BMP_temperature;BMP_pressure;BME280_temperature;BME280_humidity;BME280_pressure;Samples;Min_cycle;Max_cycle;Signal;HPM_P1;HPM_P2
2021/07/30 00:00:00;;;;;;;;;;;;;;;26.95;43.14;100210.12;1795860;78;20233;-59
2021/07/30 00:02:26;;;;;;;;;;;;;;;26.96;43.16;100214.53;1781699;78;21741;-59
2021/07/30 00:04:52;;;;;;;;;;;;;;;26.98;43.18;100217.77;1787224;78;21570;-59
2021/07/30 00:07:18;;;;;;;;;;;;;;;26.99;43.21;100216.56;1788330;78;20120;-60
2021/07/30 00:09:44;;;;;;;;;;;;;;;27.01;43.25;100212.01;1787146;78;20167;-59
2021/07/30 00:12:11;;;;;;;;;;;;;;;27.01;43.27;100214.80;1786996;78;20393;-59
2021/07/30 00:14:37;;;;;;;;;;;;;;;27.02;43.30;100217.23;1788040;79;21209;-59
2021/07/30 00:17:04;;;;;;;;;;;;;;;27.04;43.32;100221.02;1790919;78;20203;-60
2021/07/30 00:19:30;;;;;;;;;;;;;;;27.05;43.37;100222.64;1783580;78;20205;-59
2021/07/30 00:21:56;;;;;;;;;;;;;;;27.06;43.39;100222.27;1789416;79;20389;-60
2021/07/30 00:24:23;;;;;;;;;;;;;;;27.07;43.42;100222.50;1783248;79;20215;-59
2021/07/30 00:26:50;;;;;;;;;;;;;;;27.09;43.46;100224.30;1783124;79;20575;-59
2021/07/30 00:29:17;;;;;;;;;;;;;;;27.09;43.50;100223.50;1802465;78;20416;-60
2021/07/30 00:31:44;;;;;;;;;;;;;;;27.11;43.52;100221.15;1801807;78;20154;-59
2021/07/30 00:34:10;;;;;;;;;;;;;;;27.11;43.54;100226.14;1803144;78;20183;-59
2021/07/30 00:36:36;;;;;;;;;;;;;;;27.12;43.57;100216.56;1803771;78;20195;-59
2021/07/30 00:39:02;;;;;;;;;;;;;;;27.14;43.63;100218.99;1844635;76;21125;-59
2021/07/30 00:41:28;;;;;;;;;;;;;;;27.14;43.64;100217.59;1845126;76;20136;-60
2021/07/30 00:43:54;;;;;;;;;;;;;;;27.16;43.66;100213.82;1847503;76;20155;-59
2021/07/30 00:46:21;;;;;;;;;;;;;;;27.15;43.70;100220.02;1849071;76;21620;-59
2021/07/30 00:48:47;;;;;;;;;;;;;;;27.17;43.72;100209.85;1819368;77;20159;-60
2021/07/30 00:51:13;;;;;;;;;;;;;;;27.18;43.78;100204.48;1840848;77;20953;-60
2021/07/30 00:53:39;;;;;;;;;;;;;;;27.18;43.81;100205.89;1844485;76;20199;-60
2021/07/30 00:56:06;;;;;;;;;;;;;;;27.19;43.84;100206.91;1842965;76;20187;-59
2021/07/30 00:58:32;;;;;;;;;;;;;;;27.20;43.87;100204.93;1842457;76;20194;-59
2021/07/30 01:00:59;;;;;;;;;;;;;;;27.21;43.92;100201.74;1845266;77;20141;-59
2021/07/30 01:03:26;;;;;;;;;;;;;;;27.21;43.96;100204.53;1844609;77;21042;-59
2021/07/30 01:05:53;;;;;;;;;;;;;;;27.23;43.98;100213.36;1847501;76;20178;-59
2021/07/30 01:08:19;;;;;;;;;;;;;;;27.23;44.03;100210.56;1844073;77;20182;-60
2021/07/30 01:10:45;;;;;;;;;;;;;;;27.24;44.06;100208.58;1830044;76;20204;-59
2021/07/30 01:13:12;;;;;;;;;;;;;;;27.24;44.12;100213.55;1841311;76;20142;-59
2021/07/30 01:15:38;;;;;;;;;;;;;;;27.25;44.13;100212.95;1845562;76;21504;-59
2021/07/30 01:18:04;;;;;;;;;;;;;;;27.25;44.18;100213.77;1848551;76;20182;-59
2021/07/30 01:20:30;;;;;;;;;;;;;;;27.26;44.20;100211.78;1841704;77;20166;-60
2021/07/30 01:22:57;;;;;;;;;;;;;;;27.26;44.26;100211.20;1846512;76;20187;-59
2021/07/30 01:25:24;;;;;;;;;;;;;;;27.27;44.30;100206.42;1841645;76;20141;-60
2021/07/30 01:27:50;;;;;;;;;;;;;;;27.28;44.33;100214.41;1834616;76;21255;-59
2021/07/30 01:30:17;;;;;;;;;;;;;;;27.28;44.34;100213.01;1799675;78;20196;-59
2021/07/30 01:32:43;;;;;;;;;;;;;;;27.29;44.38;100211.02;1799216;78;20185;-59
2021/07/30 01:35:09;;;;;;;;;;;;;;;27.30;44.42;100211.83;1804148;78;20189;-60
2021/07/30 01:37:35;;;;;;;;;;;;;;;27.31;44.43;100209.26;1807373;78;20211;-59
2021/07/30 01:40:02;;;;;;;;;;;;;;;27.32;44.50;100210.88;1807588;78;21909;-59
2021/07/30 01:42:28;;;;;;;;;;;;;;;27.31;44.51;100208.67;1805705;78;20301;-59
2021/07/30 01:44:54;;;;;;;;;;;;;;;27.32;44.55;100215.06;1803127;78;20190;-59
2021/07/30 01:47:21;;;;;;;;;;;;;;;27.33;44.57;100220.25;1806799;78;20459;-60
2021/07/30 01:49:49;;;;;;;;;;;;;;;27.34;44.61;100222.46;1801272;78;20188;-59
2021/07/30 01:52:15;;;;;;;;;;;;;;;27.33;44.65;100221.66;1807415;78;21145;-59
2021/07/30 01:54:41;;;;;;;;;;;;;;;27.33;44.68;100215.29;1804998;78;20417;-60
2021/07/30 01:57:07;;;;;;;;;;;;;;;27.34;44.68;100223.86;1798434;78;20146;-59
2021/07/30 01:59:33;;;;;;;;;;;;;;;27.35;44.73;100228.27;1803260;78;20121;-60
2021/07/30 02:02:00;;;;;;;;;;;;;;;27.35;44.77;100231.06;1799431;78;20464;-59
2021/07/30 02:04:26;;;;;;;;;;;;;;;27.35;44.79;100237.45;1801578;78;21113;-59
2021/07/30 02:06:52;;;;;;;;;;;;;;;27.37;44.82;100241.28;1808145;78;20427;-60
2021/07/30 02:09:18;;;;;;;;;;;;;;;27.36;44.85;100237.68;1805737;78;20180;-59
2021/07/30 02:11:44;;;;;;;;;;;;;;;27.37;44.86;100232.91;1803972;78;20439;-59
2021/07/30 02:14:16;;;;;;;;;;;;;;;27.38;44.91;100235.89;1800856;78;20206;-60
2021/07/30 02:16:45;;;;;;;;;;;;;;;27.37;44.93;100240.66;1801853;78;20570;-59
2021/07/30 02:19:12;;;;;;;;;;;;;;;27.38;44.96;100244.27;1800255;78;21039;-59
2021/07/30 02:21:38;;;;;;;;;;;;;;;27.38;44.98;100251.25;1802944;78;20181;-59
2021/07/30 02:24:05;;;;;;;;;;;;;;;27.39;45.01;100252.88;1808343;78;20457;-59
2021/07/30 02:26:31;;;;;;;;;;;;;;;27.39;45.06;100252.28;1801819;78;20205;-60
2021/07/30 02:28:57;;;;;;;;;;;;;;;27.39;45.07;100250.08;1825079;76;21494;-59
2021/07/30 02:31:23;;;;;;;;;;;;;;;27.40;45.10;100262.87;1837975;77;20109;-60
2021/07/30 02:33:50;;;;;;;;;;;;;;;27.39;45.14;100262.64;1838521;76;20247;-59
2021/07/30 02:36:16;;;;;;;;;;;;;;;27.40;45.15;100269.27;1835513;76;20575;-59
2021/07/30 02:38:42;;;;;;;;;;;;;;;27.40;45.19;100268.45;1839233;76;20145;-59
2021/07/30 02:41:08;;;;;;;;;;;;;;;27.41;45.22;100280.66;1839159;76;21968;-57
2021/07/30 02:43:34;;;;;;;;;;;;;;;27.41;45.26;100286.25;1834680;77;20291;-59
2021/07/30 02:46:00;;;;;;;;;;;;;;;27.42;45.27;100285.63;1839047;76;20133;-59
2021/07/30 02:48:26;;;;;;;;;;;;;;;27.43;45.30;100288.64;1838189;76;20125;-60
2021/07/30 02:50:52;;;;;;;;;;;;;;;27.42;45.32;100289.23;1837471;76;20761;-60
2021/07/30 02:53:18;;;;;;;;;;;;;;;27.42;45.35;100285.63;1839481;76;20985;-60
2021/07/30 02:55:48;;;;;;;;;;;;;;;27.43;45.37;100290.05;1836549;77;20379;-59
2021/07/30 02:58:14;;;;;;;;;;;;;;;27.42;45.40;100283.65;1837793;76;20353;-60
2021/07/30 03:00:40;;;;;;;;;;;;;;;27.44;45.45;100291.66;1834736;76;20567;-58
2021/07/30 03:03:07;;;;;;;;;;;;;;;27.43;45.46;100286.66;1840728;76;20456;-59
2021/07/30 03:05:33;;;;;;;;;;;;;;;27.43;45.51;100292.84;1837535;76;21876;-59
2021/07/30 03:07:59;;;;;;;;;;;;;;;27.44;45.52;100298.06;1842058;76;20105;-60
2021/07/30 03:10:25;;;;;;;;;;;;;;;27.45;45.55;100296.08;1838309;76;20162;-59
2021/07/30 03:12:51;;;;;;;;;;;;;;;27.45;45.60;100298.88;1841439;76;20186;-60
2021/07/30 03:15:17;;;;;;;;;;;;;;;27.45;45.62;100308.06;1838716;76;20454;-60
2021/07/30 03:17:43;;;;;;;;;;;;;;;27.45;45.64;100312.25;1839870;76;21262;-59
2021/07/30 03:20:10;;;;;;;;;;;;;;;27.45;45.66;100316.44;1841399;77;20371;-58
2021/07/30 03:22:37;;;;;;;;;;;;;;;27.47;45.69;100318.84;1839812;76;20447;-59
2021/07/30 03:25:03;;;;;;;;;;;;;;;27.46;45.74;100315.23;1842895;77;20108;-59
2021/07/30 03:27:29;;;;;;;;;;;;;;;27.48;45.74;100320.49;1841137;76;20417;-60
2021/07/30 03:29:55;;;;;;;;;;;;;;;27.47;45.76;100319.68;1842697;76;21217;-59
2021/07/30 03:32:21;;;;;;;;;;;;;;;27.48;45.78;100313.50;1842265;77;20171;-60
2021/07/30 03:34:48;;;;;;;;;;;;;;;27.49;45.80;100316.52;1845830;77;20136;-59
2021/07/30 03:37:14;;;;;;;;;;;;;;;27.48;45.84;100317.70;1837995;77;20257;-59
2021/07/30 03:39:40;;;;;;;;;;;;;;;27.49;45.87;100321.52;1838386;77;20349;-60
2021/07/30 03:42:07;;;;;;;;;;;;;;;27.49;45.88;100323.51;1842800;77;22021;-59
2021/07/30 03:44:33;;;;;;;;;;;;;;;27.49;45.91;100324.31;1838819;77;20153;-59
2021/07/30 03:46:59;;;;;;;;;;;;;;;27.50;45.93;100313.92;1842847;77;20139;-59
2021/07/30 03:49:25;;;;;;;;;;;;;;;27.50;45.96;100322.30;1840262;76;20133;-60
2021/07/30 03:51:51;;;;;;;;;;;;;;;27.50;45.97;100325.91;1840353;77;20210;-58
2021/07/30 03:54:18;;;;;;;;;;;;;;;27.51;46.00;100333.70;1840947;76;21541;-55
2021/07/30 03:56:44;;;;;;;;;;;;;;;27.51;46.00;100343.48;1839582;76;20136;-58
2021/07/30 03:59:10;;;;;;;;;;;;;;;27.52;46.03;100343.70;1846188;77;20160;-57
2021/07/30 04:01:37;;;;;;;;;;;;;;;27.51;46.06;100335.09;1846390;76;20159;-58
2021/07/30 04:04:03;;;;;;;;;;;;;;;27.52;46.10;100330.55;1839336;77;20140;-55
2021/07/30 04:06:30;;;;;;;;;;;;;;;27.53;46.13;100322.97;1844935;77;21054;-56
2021/07/30 04:08:56;;;;;;;;;;;;;;;27.54;46.16;100316.20;1840558;77;20408;-55
2021/07/30 04:11:22;;;;;;;;;;;;;;;27.52;46.21;100313.77;1843320;77;20097;-55
2021/07/30 04:13:48;;;;;;;;;;;;;;;27.54;46.23;100306.42;1839456;76;20165;-55
2021/07/30 04:16:14;;;;;;;;;;;;;;;27.55;46.25;100308.02;1838226;77;20198;-55
2021/07/30 04:18:40;;;;;;;;;;;;;;;27.54;46.28;100298.82;1846793;76;21028;-57
2021/07/30 04:21:43;;;;;;;;;;;;;;;27.54;46.33;100303.02;1844063;77;20097;-60
2021/07/30 04:24:09;;;;;;;;;;;;;;;27.55;46.34;100309.41;1846263;77;20373;-59
2021/07/30 04:26:35;;;;;;;;;;;;;;;27.54;46.36;100312.79;1834072;77;20632;-60
2021/07/30 04:29:01;;;;;;;;;;;;;;;27.55;46.38;100312.20;1843408;77;20177;-59
2021/07/30 04:31:27;;;;;;;;;;;;;;;27.57;46.44;100316.25;1842239;77;21210;-59
2021/07/30 04:33:53;;;;;;;;;;;;;;;27.58;46.47;100325.45;1844483;77;20115;-59
2021/07/30 04:36:18;;;;;;;;;;;;;;;27.58;46.51;100329.64;1846366;76;20802;-59
2021/07/30 04:38:45;;;;;;;;;;;;;;;27.58;46.50;100321.25;1835320;76;20975;-58
2021/07/30 04:41:10;;;;;;;;;;;;;;;27.59;46.55;100318.65;1839493;76;20163;-59
2021/07/30 04:43:37;;;;;;;;;;;;;;;27.59;46.57;100317.25;1846491;77;21534;-60
2021/07/30 04:46:03;;;;;;;;;;;;;;;27.59;46.62;100317.25;1850654;76;20179;-58
2021/07/30 04:48:29;;;;;;;;;;;;;;;27.59;46.59;100311.66;1845190;77;20740;-58
2021/07/30 04:50:55;;;;;;;;;;;;;;;27.60;46.65;100320.27;1843888;77;20417;-58
2021/07/30 04:53:21;;;;;;;;;;;;;;;27.60;46.68;100321.67;1835492;77;20181;-59
2021/07/30 04:55:46;;;;;;;;;;;;;;;27.60;46.74;100314.09;1843662;77;21119;-58
2021/07/30 04:58:12;;;;;;;;;;;;;;;27.60;46.76;100309.09;1847697;77;20225;-58
2021/07/30 05:00:41;;;;;;;;;;;;;;;27.60;46.80;100314.68;1847983;77;20241;-59
2021/07/30 05:03:07;;;;;;;;;;;;;;;27.59;46.84;100309.68;1846225;77;20852;-58
2021/07/30 05:05:33;;;;;;;;;;;;;;;27.59;46.87;100318.06;1847253;76;20208;-58
2021/07/30 05:07:59;;;;;;;;;;;;;;;27.59;46.90;100318.06;1840489;77;21114;-59
2021/07/30 05:10:25;;;;;;;;;;;;;;;27.59;46.95;100320.05;1840575;77;20276;-58
2021/07/30 05:12:50;;;;;;;;;;;;;;;27.60;46.97;100311.88;1838577;77;20156;-58
2021/07/30 05:15:16;;;;;;;;;;;;;;;27.58;46.97;100313.65;1843283;77;22047;-58
2021/07/30 05:17:42;;;;;;;;;;;;;;;27.60;47.01;100316.08;1851877;76;20186;-58
2021/07/30 05:20:09;;;;;;;;;;;;;;;27.59;47.05;100315.27;1847051;77;20961;-58
2021/07/30 05:22:35;;;;;;;;;;;;;;;27.60;47.08;100313.28;1850100;77;20164;-58
2021/07/30 05:25:02;;;;;;;;;;;;;;;27.59;47.12;100317.25;1849364;77;20469;-59
2021/07/30 05:27:28;;;;;;;;;;;;;;;27.59;47.13;100331.23;1848724;77;20120;-58
2021/07/30 05:29:58;;;;;;;;;;;;;;;27.59;47.16;100322.84;1847633;77;20809;-59
2021/07/30 05:32:24;;;;;;;;;;;;;;;27.59;47.19;100329.23;1843041;77;21225;-59
2021/07/30 05:34:50;;;;;;;;;;;;;;;27.59;47.21;100325.05;1840928;77;21526;-58
2021/07/30 05:37:16;;;;;;;;;;;;;;;27.58;47.22;100334.61;1835456;77;20258;-58
2021/07/30 05:39:42;;;;;;;;;;;;;;;27.59;47.25;100336.81;1847069;77;20188;-58
2021/07/30 05:42:08;;;;;;;;;;;;;;;27.58;47.23;100338.80;1845495;77;20826;-59
2021/07/30 05:44:35;;;;;;;;;;;;;;;27.60;47.28;100344.02;1846699;77;21052;-59
2021/07/30 05:47:03;;;;;;;;;;;;;;;27.58;47.31;100338.80;1841054;77;20175;-58
2021/07/30 05:49:29;;;;;;;;;;;;;;;27.58;47.32;100333.21;1838745;77;20131;-57
2021/07/30 05:51:55;;;;;;;;;;;;;;;27.58;47.34;100332.44;1839245;77;20088;-58
2021/07/30 05:54:21;;;;;;;;;;;;;;;27.59;47.35;100329.83;1840124;77;20120;-58
2021/07/30 05:56:47;;;;;;;;;;;;;;;27.59;47.38;100329.23;1835903;77;20841;-58
2021/07/30 05:59:13;;;;;;;;;;;;;;;27.58;47.38;100320.64;1837183;77;20470;-58
2021/07/30 06:01:39;;;;;;;;;;;;;;;27.59;47.42;100330.64;1843571;77;20231;-59
2021/07/30 06:04:05;;;;;;;;;;;;;;;27.58;47.44;100315.05;1806230;77;20182;-58
2021/07/30 06:06:32;;;;;;;;;;;;;;;27.58;47.45;100322.03;1843524;77;20126;-58
2021/07/30 06:08:58;;;;;;;;;;;;;;;27.59;47.46;100320.05;1848644;77;21069;-58
2021/07/30 06:11:23;;;;;;;;;;;;;;;27.58;47.48;100329.02;1827061;77;20295;-58
2021/07/30 06:13:50;;;;;;;;;;;;;;;27.59;47.52;100331.23;1833189;77;20182;-58
2021/07/30 06:16:16;;;;;;;;;;;;;;;27.59;47.52;100337.62;1833408;77;20336;-58
2021/07/30 06:18:43;;;;;;;;;;;;;;;27.59;47.54;100331.23;1838798;77;20216;-58
2021/07/30 06:21:09;;;;;;;;;;;;;;;27.59;47.54;100339.61;1846588;77;21515;-59
2021/07/30 06:23:36;;;;;;;;;;;;;;;27.60;47.56;100342.63;1836497;76;20410;-58
2021/07/30 06:26:02;;;;;;;;;;;;;;;27.60;47.58;100345.42;1842804;76;20194;-59
2021/07/30 06:28:28;;;;;;;;;;;;;;;27.59;47.59;100346.59;1836170;77;20081;-58
2021/07/30 06:30:54;;;;;;;;;;;;;;;27.59;47.63;100346.01;1843185;76;20171;-59
2021/07/30 06:33:23;;;;;;;;;;;;;;;27.60;47.63;100349.61;1837159;77;21543;-58
2021/07/30 06:35:50;;;;;;;;;;;;;;;27.59;47.64;100350.20;1844661;77;20381;-58
2021/07/30 06:38:16;;;;;;;;;;;;;;;27.60;47.65;100346.81;1844495;77;20230;-58
2021/07/30 06:40:46;;;;;;;;;;;;;;;27.60;47.66;100348.22;1839380;77;20107;-58
2021/07/30 06:43:12;;;;;;;;;;;;;;;27.61;47.69;100355.42;1845081;76;20105;-59
2021/07/30 06:45:39;;;;;;;;;;;;;;;27.60;47.69;100358.00;1839666;77;21111;-58
2021/07/30 06:48:05;;;;;;;;;;;;;;;27.62;47.70;100364.03;1843108;77;20132;-58
2021/07/30 06:50:33;;;;;;;;;;;;;;;27.61;47.71;100351.23;1845503;76;20091;-54
2021/07/30 06:53:00;;;;;;;;;;;;;;;27.60;47.71;100349.61;1840658;76;20417;-57
2021/07/30 06:55:26;;;;;;;;;;;;;;;27.58;47.61;100345.01;1839571;76;20140;-56
2021/07/30 06:57:52;;;;;;;;;;;;;;;27.54;47.48;100345.55;1862465;76;21426;-56
2021/07/30 07:00:18;;;;;;;;;;;;;;;27.47;47.39;100343.43;1838566;77;20227;-56
2021/07/30 07:02:44;;;;;;;;;;;;;;;27.42;47.26;100347.09;1838601;76;20392;-57
2021/07/30 07:05:11;;;;;;;;;;;;;;;27.36;47.14;100341.63;1832994;77;20073;-59
2021/07/30 07:07:37;;;;;;;;;;;;;;;27.29;47.06;100342.30;1843481;76;20459;-56
2021/07/30 07:10:04;;;;;;;;;;;;;;;27.25;47.00;100347.83;1841455;76;21131;-58
2021/07/30 07:12:30;;;;;;;;;;;;;;;27.21;46.89;100346.97;1837799;77;20833;-59
2021/07/30 07:14:56;;;;;;;;;;;;;;;27.16;46.81;100346.47;1844206;77;20163;-59
2021/07/30 07:17:22;;;;;;;;;;;;;;;27.12;46.71;100338.03;1848538;77;20124;-59
2021/07/30 07:19:48;;;;;;;;;;;;;;;27.09;46.59;100336.59;1850622;76;20141;-57
2021/07/30 07:22:14;;;;;;;;;;;;;;;27.07;46.49;100337.56;1861294;76;21130;-58
2021/07/30 07:24:40;;;;;;;;;;;;;;;27.03;46.38;100334.69;1835513;77;20188;-55
2021/07/30 07:27:06;;;;;;;;;;;;;;;27.00;46.28;100333.23;1834150;76;20188;-56
2021/07/30 07:29:32;;;;;;;;;;;;;;;26.97;46.19;100337.59;1844807;77;20517;-56
2021/07/30 07:31:59;;;;;;;;;;;;;;;26.94;46.09;100333.34;1842342;77;20187;-57
2021/07/30 07:34:26;;;;;;;;;;;;;;;26.93;46.04;100336.72;1849578;77;21060;-58
2021/07/30 07:36:52;;;;;;;;;;;;;;;26.91;46.07;100331.27;1837359;77;20160;-55
2021/07/30 07:39:18;;;;;;;;;;;;;;;26.91;46.01;100338.25;1846954;77;20198;-54
2021/07/30 07:41:45;;;;;;;;;;;;;;;26.89;45.99;100334.45;1843680;77;20437;-55
2021/07/30 07:44:15;;;;;;;;;;;;;;;26.88;45.94;100334.81;1844679;77;20434;-56
2021/07/30 07:46:42;;;;;;;;;;;;;;;26.88;45.88;100336.21;1842321;77;21156;-55
2021/07/30 07:49:08;;;;;;;;;;;;;;;26.85;45.83;100340.56;1843280;77;20424;-56
2021/07/30 07:51:36;;;;;;;;;;;;;;;26.86;45.78;100338.59;1844476;77;20115;-56
2021/07/30 07:54:02;;;;;;;;;;;;;;;26.84;45.76;100334.73;1846626;77;20698;-55
2021/07/30 07:56:28;;;;;;;;;;;;;;;26.83;45.69;100338.69;1844612;77;20253;-55
2021/07/30 07:58:54;;;;;;;;;;;;;;;26.81;45.58;100332.10;1842895;76;21479;-54
2021/07/30 08:01:20;;;;;;;;;;;;;;;26.83;45.49;100333.11;1848635;77;20162;-56
2021/07/30 08:03:46;;;;;;;;;;;;;;;26.83;45.40;100338.10;1844386;76;20494;-56
2021/07/30 08:06:17;;;;;;;;;;;;;;;26.83;45.29;100339.50;1844351;77;21900;-56
2021/07/30 08:08:43;;;;;;;;;;;;;;;26.84;45.20;100344.50;1844593;77;20190;-55
2021/07/30 08:11:10;;;;;;;;;;;;;;;26.83;45.12;100338.10;1831780;77;21131;-55
2021/07/30 08:13:36;;;;;;;;;;;;;;;26.84;45.01;100338.91;1840860;77;20479;-55
2021/07/30 08:16:02;;;;;;;;;;;;;;;26.83;44.94;100328.92;1842996;76;20460;-55
2021/07/30 08:18:28;;;;;;;;;;;;;;;26.83;44.83;100327.52;1849702;77;20155;-55
2021/07/30 08:20:54;;;;;;;;;;;;;;;26.81;44.74;100329.89;1840633;77;20173;-55
2021/07/30 08:23:21;;;;;;;;;;;;;;;26.83;44.66;100333.11;1841499;77;21113;-56
2021/07/30 08:25:47;;;;;;;;;;;;;;;26.83;44.58;100321.94;1839118;77;20169;-55
2021/07/30 08:28:13;;;;;;;;;;;;;;;26.83;44.48;100322.75;1847053;77;20130;-54
2021/07/30 08:30:43;;;;;;;;;;;;;;;26.81;44.39;100322.33;1844119;77;20123;-56
2021/07/30 08:33:09;;;;;;;;;;;;;;;26.81;44.31;100318.73;1844096;77;20467;-56
2021/07/30 08:35:35;;;;;;;;;;;;;;;26.80;44.23;100321.30;1846811;77;21933;-56
2021/07/30 08:38:01;;;;;;;;;;;;;;;26.80;44.15;100324.09;1843792;77;20274;-56
2021/07/30 08:40:31;;;;;;;;;;;;;;;26.79;44.08;100319.09;1839751;77;20155;-53
2021/07/30 08:42:58;;;;;;;;;;;;;;;26.78;43.99;100322.24;1839892;77;20456;-55
2021/07/30 08:45:50;;;;;;;;;;;;;;;26.79;43.92;100321.07;1836853;77;20106;-55
2021/07/30 08:48:16;;;;;;;;;;;;;;;26.79;43.89;100318.28;1843846;77;21230;-55
2021/07/30 08:50:42;;;;;;;;;;;;;;;26.79;43.89;100309.33;1839612;77;20195;-55
2021/07/30 08:53:08;;;;;;;;;;;;;;;26.84;43.92;100316.58;1836751;77;20161;-55
2021/07/30 08:55:34;;;;;;;;;;;;;;;26.85;43.93;100311.25;1844649;77;20685;-54
2021/07/30 08:58:00;;;;;;;;;;;;;;;26.89;43.95;100314.11;1830528;77;20670;-54
2021/07/30 09:00:25;;;;;;;;;;;;;;;26.91;43.98;100309.75;1839027;77;20736;-55
2021/07/30 09:02:56;;;;;;;;;;;;;;;26.93;44.01;100303.22;1835579;77;20658;-54
2021/07/30 09:05:33;;;;;;;;;;;;;;;26.95;44.04;100306.43;1836327;77;20122;-55
2021/07/30 09:08:02;;;;;;;;;;;;;;;26.98;44.09;100307.10;1829047;77;20189;-55
2021/07/30 09:10:40;;;;;;;;;;;;;;;27.00;44.13;100302.52;1846486;77;20187;-55
2021/07/30 09:13:23;;;;;;;;;;;;;;;27.02;44.14;100299.59;1847445;77;21155;-53
2021/07/30 09:16:09;;;;;;;;;;;;;;;27.04;44.18;100296.41;1843634;77;20691;-55
2021/07/30 09:18:39;;;;;;;;;;;;;;;27.05;44.17;100300.81;1838545;76;20161;-55
2021/07/30 09:21:29;;;;;;;;;;;;;;;27.06;44.07;100296.85;1823668;77;20490;-56
2021/07/30 09:24:05;;;;;;;;;;;;;;;27.05;44.04;100296.62;1835151;77;20193;-54
2021/07/30 09:26:50;;;;;;;;;;;;;;;27.01;43.99;100296.58;1845495;77;22052;-56
2021/07/30 09:29:18;;;;;;;;;;;;;;;27.01;44.00;100294.37;1828340;77;20421;-56
2021/07/30 09:31:46;;;;;;;;;;;;;;;27.01;44.02;100291.58;1813781;79;20130;-55
2021/07/30 09:34:21;;;;;;;;;;;;;;;27.01;43.99;100290.18;1817501;77;20511;-56
2021/07/30 09:36:53;;;;;;;;;;;;;;;27.02;43.95;100297.38;1841465;77;20131;-55
2021/07/30 09:39:21;;;;;;;;;;;;;;;27.01;43.95;100288.20;1845226;77;21205;-55
2021/07/30 09:42:00;;;;;;;;;;;;;;;27.03;43.96;100284.42;1844943;77;20404;-56
2021/07/30 09:44:25;;;;;;;;;;;;;;;27.05;44.00;100280.69;1836600;76;20161;-55
2021/07/30 09:47:17;;;;;;;;;;;;;;;27.08;44.03;100281.33;1838253;77;20421;-55
2021/07/30 09:49:49;;;;;;;;;;;;;;;27.10;44.07;100276.77;1846156;77;20088;-56
2021/07/30 09:52:23;;;;;;;;;;;;;;;27.12;44.10;100275.79;1846933;77;20943;-55
2021/07/30 09:54:55;;;;;;;;;;;;;;;27.15;44.13;100277.86;1830774;77;20171;-55
2021/07/30 09:57:23;;;;;;;;;;;;;;;27.16;44.15;100269.09;1846724;77;20179;-56
2021/07/30 09:59:50;;;;;;;;;;;;;;;27.18;44.17;100265.34;1843660;77;20344;-56
2021/07/30 10:02:18;;;;;;;;;;;;;;;27.20;44.21;100264.98;1848176;77;20186;-56
2021/07/30 10:04:46;;;;;;;;;;;;;;;27.22;44.22;100273.18;1839902;77;20387;-56
2021/07/30 10:07:13;;;;;;;;;;;;;;;27.24;44.25;100262.42;1839811;77;20219;-56
2021/07/30 10:09:45;;;;;;;;;;;;;;;27.26;44.27;100262.06;1840017;77;20155;-54
2021/07/30 10:12:11;;;;;;;;;;;;;;;27.25;44.20;100255.66;1840724;77;20162;-56
2021/07/30 10:14:37;;;;;;;;;;;;;;;27.24;44.14;100254.05;1848769;77;20128;-55
2021/07/30 10:17:04;;;;;;;;;;;;;;;27.23;44.10;100250.25;1846935;77;21101;-56
2021/07/30 10:19:33;;;;;;;;;;;;;;;27.22;44.10;100250.03;1802179;77;20394;-56
2021/07/30 10:22:00;;;;;;;;;;;;;;;27.20;44.05;100242.63;1836834;77;20158;-55
2021/07/30 10:24:27;;;;;;;;;;;;;;;27.19;44.03;100243.81;1833573;77;20212;-56
2021/07/30 10:26:54;;;;;;;;;;;;;;;27.18;44.00;100234.63;1838369;77;20136;-55
2021/07/30 10:29:20;;;;;;;;;;;;;;;27.17;43.99;100234.40;1811450;77;21070;-54
2021/07/30 10:31:50;;;;;;;;;;;;;;;27.20;44.00;100237.83;1814172;77;20108;-54
2021/07/30 10:34:18;;;;;;;;;;;;;;;27.24;44.01;100239.30;1816306;79;20207;-54
2021/07/30 10:36:44;;;;;;;;;;;;;;;27.26;44.01;100232.14;1793518;78;20240;-54
2021/07/30 10:39:18;;;;;;;;;;;;;;;27.31;43.98;100226.02;1819753;79;20133;-55
2021/07/30 10:42:16;;;;;;;;;;;;;;;27.34;43.98;100229.44;1798535;79;21054;-54
2021/07/30 10:45:14;;;;;;;;;;;;;;;27.38;43.99;100226.11;1799603;79;20386;-52
2021/07/30 10:47:40;;;;;;;;;;;;;;;27.41;43.98;100218.39;1817939;79;20154;-54
2021/07/30 10:50:27;;;;;;;;;;;;;;;27.45;43.98;100218.66;1814942;78;20185;-52
2021/07/30 10:53:30;;;;;;;;;;;;;;;27.47;44.00;100217.70;1803621;79;20230;-55
2021/07/30 10:56:01;;;;;;;;;;;;;;;27.50;43.99;100209.14;1816342;79;21027;-53
2021/07/30 10:58:49;;;;;;;;;;;;;;;27.53;43.99;100208.41;1775518;80;20150;-55
2021/07/30 11:01:21;;;;;;;;;;;;;;;27.55;43.99;100193.45;1731263;82;20135;-54
2021/07/30 11:03:54;;;;;;;;;;;;;;;27.58;44.02;100195.50;1748014;81;20122;-55
2021/07/30 11:06:28;;;;;;;;;;;;;;;27.60;44.04;100195.91;1764377;81;20157;-54
2021/07/30 11:09:04;;;;;;;;;;;;;;;27.62;44.05;100188.78;1763130;80;21336;-56
2021/07/30 11:11:45;;;;;;;;;;;;;;;27.63;44.07;100193.75;1782971;79;20467;-54
2021/07/30 11:14:18;;;;;;;;;;;;;;;27.66;44.08;100186.02;1775407;80;20246;-54
2021/07/30 11:16:49;;;;;;;;;;;;;;;27.68;44.10;100192.02;1764595;80;20182;-53
2021/07/30 11:19:17;;;;;;;;;;;;;;;27.71;44.10;100192.65;1780305;80;20182;-54
2021/07/30 11:21:43;;;;;;;;;;;;;;;27.73;44.14;100185.29;1771619;80;21154;-54
2021/07/30 11:24:10;;;;;;;;;;;;;;;27.74;44.16;100177.13;1777901;80;20414;-56
2021/07/30 11:26:37;;;;;;;;;;;;;;;27.76;44.17;100178.34;1808694;79;20149;-54
2021/07/30 11:29:11;;;;;;;;;;;;;;;27.79;44.21;100173.41;1807843;78;20195;-53
2021/07/30 11:31:37;;;;;;;;;;;;;;;27.81;44.21;100178.00;1783372;80;20231;-52
2021/07/30 11:34:05;;;;;;;;;;;;;;;27.84;44.23;100177.85;1748494;80;21621;-53
2021/07/30 11:36:32;;;;;;;;;;;;;;;27.84;44.26;100171.64;1756583;81;20123;-54
2021/07/30 11:39:00;;;;;;;;;;;;;;;27.88;44.26;100173.11;1752597;81;20188;-51
2021/07/30 11:41:26;;;;;;;;;;;;;;;27.91;44.29;100175.94;1755261;80;20260;-53
2021/07/30 11:44:01;;;;;;;;;;;;;;;27.93;44.30;100174.13;1777050;80;20782;-55
2021/07/30 11:46:28;;;;;;;;;;;;;;;27.94;44.31;100175.16;1752819;81;21158;-52
2021/07/30 11:48:54;;;;;;;;;;;;;;;27.97;44.32;100165.19;1759294;81;20454;-54
2021/07/30 11:51:20;;;;;;;;;;;;;;;27.99;44.35;100158.64;1755918;81;20110;-52
2021/07/30 11:53:48;;;;;;;;;;;;;;;28.00;44.36;100151.27;1756432;81;21017;-53
2021/07/30 11:56:20;;;;;;;;;;;;;;;28.03;44.38;100148.30;1755501;81;20221;-54
2021/07/30 11:59:00;;;;;;;;;;;;;;;28.04;44.40;100145.13;1764038;80;21603;-54
2021/07/30 12:01:27;;;;;;;;;;;;;;;28.06;44.41;100142.73;1763669;81;20225;-53
2021/07/30 12:04:13;;;;;;;;;;;;;;;28.09;44.42;100138.38;1759997;81;20207;-53
2021/07/30 12:06:42;;;;;;;;;;;;;;;28.10;44.44;100128.22;1756593;81;20118;-53
2021/07/30 12:09:09;;;;;;;;;;;;;;;28.13;44.44;100131.63;1760707;81;20174;-53
2021/07/30 12:11:35;;;;;;;;;;;;;;;28.15;44.44;100120.88;1750181;81;21853;-52
2021/07/30 12:14:02;;;;;;;;;;;;;;;28.19;44.48;100114.50;1768144;80;20137;-54
2021/07/30 12:16:28;;;;;;;;;;;;;;;28.19;44.49;100118.11;1758448;81;20155;-54
2021/07/30 12:18:53;;;;;;;;;;;;;;;28.22;44.52;100122.15;1764084;81;20149;-53
2021/07/30 12:21:19;;;;;;;;;;;;;;;28.24;44.52;100121.15;1731018;82;20181;-53
2021/07/30 12:23:45;;;;;;;;;;;;;;;28.25;44.53;100117.17;1719745;83;23362;-53
2021/07/30 12:26:34;;;;;;;;;;;;;;;28.27;44.54;100114.18;1756318;81;20204;-53
2021/07/30 12:29:00;;;;;;;;;;;;;;;28.29;44.57;100113.80;1755022;81;20192;-54
2021/07/30 12:31:26;;;;;;;;;;;;;;;28.31;44.59;100109.42;1762783;81;20360;-54
2021/07/30 12:34:13;;;;;;;;;;;;;;;28.33;44.58;100111.25;1780582;80;20211;-53
2021/07/30 12:36:39;;;;;;;;;;;;;;;28.34;44.61;100106.46;1766504;80;21113;-54
2021/07/30 12:39:06;;;;;;;;;;;;;;;28.36;44.61;100099.28;1792338;80;20156;-54